Time;durP1;ratioP1;P1;durP2;ratioP2;P2;SDS_P1;SDS_P2;PMS_P1;PMS_P2;Temp;Humidity;BMP_temperature;BMP_pressure;BME280_temperature;BME280_humidity;BME280_pressure;Samples;Min_cycle;Max_cycle;Signal;HPM_P1;HPM_P2
2023/05/29 08:56:25;;;;;;;10.68;2.22;;;;;;;14.26;63.02;102303.19;5144394;27;20318;-69
2023/05/29 08:58:52;;;;;;;17.02;4.10;;;;;;;14.31;62.26;102295.22;5130372;27;20050;-69
2023/05/29 09:01:17;;;;;;;14.10;3.67;;;;;;;14.30;62.75;102309.88;5127106;28;20027;-71
2023/05/29 09:03:43;;;;;;;15.73;4.00;;;;;;;14.40;63.29;102305.88;5120805;28;20424;-70
2023/05/29 09:06:08;;;;;;;16.55;4.18;;;;;;;14.46;61.95;102302.28;5110471;28;20028;-69
2023/05/29 09:08:35;;;;;;;13.65;3.83;;;;;;;14.54;61.75;102307.50;5125742;28;20039;-71
2023/05/29 09:11:01;;;;;;;13.73;3.65;;;;;;;14.57;61.24;102314.38;5129304;28;20030;-76
2023/05/29 09:13:28;;;;;;;13.40;3.58;;;;;;;14.52;60.06;102307.72;5129449;28;20031;-71
2023/05/29 09:15:58;;;;;;;13.30;3.65;;;;;;;14.57;59.93;102328.00;5130366;27;20035;-72
2023/05/29 09:18:23;;;;;;;12.98;3.63;;;;;;;14.51;58.74;102319.66;5130637;27;20420;-71
2023/05/29 09:20:48;;;;;;;15.05;4.45;;;;;;;14.47;59.28;102312.13;5130078;28;20090;-71
2023/05/29 09:23:14;;;;;;;15.30;3.50;;;;;;;14.49;59.10;102318.19;5127248;28;20168;-72
2023/05/29 09:25:44;;;;;;;14.23;3.38;;;;;;;14.50;59.31;102306.25;5126347;28;20035;-72
2023/05/29 09:28:10;;;;;;;15.15;4.07;;;;;;;14.61;59.99;102312.94;5130457;27;20027;-69
2023/05/29 09:30:44;;;;;;;11.73;3.47;;;;;;;14.73;59.60;102304.94;5130388;27;20462;-70
2023/05/29 09:33:12;;;;;;;12.77;3.50;;;;;;;14.82;59.47;102301.72;5130324;27;20031;-71
2023/05/29 09:35:41;;;;;;;16.70;3.85;;;;;;;15.03;59.57;102303.28;5129786;27;20015;-70
2023/05/29 09:38:08;;;;;;;11.82;3.25;;;;;;;15.04;56.86;102304.13;5129759;27;20039;-78
2023/05/29 09:40:36;;;;;;;14.10;3.60;;;;;;;15.07;57.36;102303.69;5129090;27;20386;-76
2023/05/29 09:43:23;;;;;;;9.55;3.38;;;;;;;15.12;57.27;102298.41;5121991;27;20034;-74
2023/05/29 09:45:50;;;;;;;12.52;3.47;;;;;;;15.18;57.12;102304.88;5127878;28;20047;-74
2023/05/29 09:48:23;;;;;;;10.90;3.20;;;;;;;15.35;57.40;102295.13;5122722;27;20469;-69
2023/05/29 09:50:48;;;;;;;16.33;3.65;;;;;;;15.32;56.79;102298.25;5121695;27;20485;-72
2023/05/29 09:53:24;;;;;;;11.52;3.20;;;;;;;15.45;56.93;102296.50;5127590;27;20114;-74
2023/05/29 09:55:50;;;;;;;12.57;3.45;;;;;;;15.52;55.70;102302.72;5111218;27;20055;-71
2023/05/29 09:58:18;;;;;;;16.45;3.70;;;;;;;15.62;55.55;102297.59;5110734;28;20059;-72
2023/05/29 10:00:43;;;;;;;13.70;3.38;;;;;;;15.70;55.50;102305.53;5107134;28;20027;-73
2023/05/29 10:03:11;;;;;;;14.68;3.88;;;;;;;15.72;55.87;102300.66;5115223;28;20031;-75
2023/05/29 10:05:37;;;;;;;13.23;3.78;;;;;;;15.81;55.39;102303.97;5127399;27;20118;-76
2023/05/29 10:08:05;;;;;;;11.65;3.70;;;;;;;15.84;54.57;102310.88;5115370;28;20034;-71
2023/05/29 10:10:31;;;;;;;15.25;3.38;;;;;;;15.83;55.10;102304.56;5115775;28;20572;-76
2023/05/29 10:12:57;;;;;;;17.25;4.05;;;;;;;15.91;54.14;102300.72;5114857;28;20031;-74
2023/05/29 10:15:29;;;;;;;12.02;3.20;;;;;;;15.98;55.10;102301.50;5100999;28;20494;-72
2023/05/29 10:18:20;;;;;;;12.55;3.80;;;;;;;16.14;55.35;102305.53;5100685;28;20069;-75
2023/05/29 10:20:55;;;;;;;12.10;3.30;;;;;;;16.09;53.94;102303.50;5113745;28;20034;-72
2023/05/29 10:23:25;;;;;;;11.95;3.55;;;;;;;16.13;53.56;102292.94;5113867;28;20394;-77
2023/05/29 10:26:06;;;;;;;11.00;3.13;;;;;;;16.16;54.09;102292.47;5115141;28;20035;-72
2023/05/29 10:28:32;;;;;;;14.98;4.05;;;;;;;16.23;54.21;102297.84;5114875;28;20035;-75
2023/05/29 10:31:05;;;;;;;12.30;3.85;;;;;;;16.14;53.48;102297.34;5114481;28;20063;-72
2023/05/29 10:34:07;;;;;;;14.13;3.83;;;;;;;16.21;53.69;102294.53;5115561;28;20067;-72
2023/05/29 10:36:42;;;;;;;12.00;3.55;;;;;;;16.30;54.30;102288.53;5114466;28;20019;-72
2023/05/29 10:39:08;;;;;;;17.83;3.85;;;;;;;16.27;52.92;102290.88;5102274;28;20473;-78
2023/05/29 10:41:33;;;;;;;12.15;3.30;;;;;;;16.41;52.51;102292.41;5106839;28;20028;-72
2023/05/29 10:44:03;;;;;;;11.60;3.50;;;;;;;16.47;52.64;102294.22;5113570;28;20042;-75
2023/05/29 10:46:48;;;;;;;15.20;3.30;;;;;;;16.62;53.53;102285.63;5099209;28;20027;-75
2023/05/29 10:49:21;;;;;;;11.63;3.40;;;;;;;16.75;52.76;102295.53;5114555;28;20032;-75
2023/05/29 10:51:48;;;;;;;13.20;3.35;;;;;;;16.79;51.23;102291.28;5115111;28;20076;-73
2023/05/29 10:54:13;;;;;;;8.68;3.28;;;;;;;16.93;51.50;102285.66;5113704;28;20036;-77
2023/05/29 10:56:40;;;;;;;11.13;3.53;;;;;;;16.94;50.85;102287.31;5110802;28;20035;-77
2023/05/29 10:59:07;;;;;;;10.10;3.00;;;;;;;16.90;50.18;102295.16;5112579;28;20134;-74
2023/05/29 11:01:34;;;;;;;12.00;3.42;;;;;;;16.97;52.24;102286.88;5112542;28;20458;-73
2023/05/29 11:04:17;;;;;;;14.35;3.10;;;;;;;16.92;51.36;102276.59;5108780;28;20051;-80
2023/05/29 11:06:44;;;;;;;10.38;3.00;;;;;;;17.06;51.62;102281.88;5113628;28;20146;-71
2023/05/29 11:09:34;;;;;;;12.25;3.35;;;;;;;17.24;51.82;102278.22;5114050;28;20098;-75
2023/05/29 11:12:12;;;;;;;14.13;3.57;;;;;;;17.19;51.15;102276.19;5114155;28;20106;-72
2023/05/29 11:14:48;;;;;;;10.27;2.85;;;;;;;17.34;51.21;102271.09;5113335;28;20033;-72
2023/05/29 11:17:38;;;;;;;14.27;3.33;;;;;;;17.45;51.17;102271.38;5107050;28;20364;-75
2023/05/29 11:20:12;;;;;;;10.00;3.35;;;;;;;17.37;49.55;102269.81;5112156;28;20024;-71
2023/05/29 11:23:00;;;;;;;9.48;3.35;;;;;;;17.32;50.55;102261.50;5114349;28;20035;-72
2023/05/29 11:25:36;;;;;;;8.43;3.33;;;;;;;17.31;49.99;102271.56;5113882;28;20386;-78
2023/05/29 11:28:04;;;;;;;9.15;3.38;;;;;;;17.46;51.03;102268.38;5113961;28;20100;-76
2023/05/29 11:30:30;;;;;;;11.73;3.10;;;;;;;17.51;49.44;102264.94;5112961;28;20032;-77
2023/05/29 11:33:01;;;;;;;12.95;2.90;;;;;;;17.47;49.70;102250.91;5113577;28;20034;-78
2023/05/29 11:35:29;;;;;;;12.07;3.25;;;;;;;17.57;49.32;102265.91;5112024;28;20367;-78
2023/05/29 11:37:57;;;;;;;12.10;3.10;;;;;;;17.59;50.01;102259.13;5113579;28;20606;-76
2023/05/29 11:40:22;;;;;;;10.27;3.10;;;;;;;17.57;48.35;102272.19;5113935;28;20024;-73
2023/05/29 11:42:48;;;;;;;10.55;3.20;;;;;;;17.51;49.38;102268.53;5111436;28;20095;-75
2023/05/29 11:45:21;;;;;;;12.02;3.20;;;;;;;17.62;49.05;102266.88;5112547;28;20031;-77
2023/05/29 11:48:01;;;;;;;14.88;3.55;;;;;;;17.66;49.24;102270.81;5112408;28;20028;-75
2023/05/29 11:50:28;;;;;;;10.05;3.58;;;;;;;17.68;49.07;102260.44;5114015;28;20039;-77
2023/05/29 11:52:56;;;;;;;11.52;3.45;;;;;;;17.89;49.40;102264.50;5112421;28;20118;-73
2023/05/29 11:55:22;;;;;;;10.13;3.40;;;;;;;17.95;48.50;102270.94;5113534;28;20070;-74
2023/05/29 11:57:49;;;;;;;12.38;3.63;;;;;;;17.93;47.87;102261.28;5111007;28;20102;-76
2023/05/29 12:00:16;;;;;;;8.32;2.95;;;;;;;18.07;48.23;102259.94;5112390;28;20037;-72
2023/05/29 12:02:43;;;;;;;10.85;3.55;;;;;;;17.95;47.64;102250.91;5111243;28;20019;-75
2023/05/29 12:05:09;;;;;;;11.43;3.20;;;;;;;17.93;47.92;102245.66;5112674;28;20032;-78
2023/05/29 12:07:36;;;;;;;9.75;3.10;;;;;;;18.05;48.23;102249.22;5113419;28;20164;-71
2023/05/29 12:10:16;;;;;;;11.38;3.50;;;;;;;18.19;48.66;102259.91;5113347;28;20067;-75
2023/05/29 12:12:42;;;;;;;14.38;3.15;;;;;;;18.08;47.39;102255.31;5112930;28;20034;-75
2023/05/29 12:15:08;;;;;;;11.57;3.33;;;;;;;18.19;47.18;102249.81;5113314;28;20030;-75
2023/05/29 12:17:35;;;;;;;8.27;2.88;;;;;;;18.21;46.37;102261.34;5112177;28;20028;-74
2023/05/29 12:20:00;;;;;;;6.65;2.67;;;;;;;18.15;45.20;102248.63;5112380;28;20062;-74
2023/05/29 12:22:36;;;;;;;9.02;2.83;;;;;;;18.06;45.53;102250.06;5113372;28;20051;-77
2023/05/29 12:25:09;;;;;;;11.63;3.13;;;;;;;18.12;45.22;102257.31;5113148;28;20112;-77
2023/05/29 12:27:41;;;;;;;9.77;2.80;;;;;;;18.23;44.79;102261.09;5112381;28;20062;-73
2023/05/29 12:30:08;;;;;;;7.13;2.90;;;;;;;18.25;45.11;102258.94;5112811;28;20031;-72
2023/05/29 12:32:38;;;;;;;9.43;2.80;;;;;;;18.32;45.85;102259.63;5113270;28;20035;-79
2023/05/29 12:35:20;;;;;;;10.60;3.22;;;;;;;18.34;46.15;102254.78;5112895;28;20027;-74
2023/05/29 12:37:47;;;;;;;12.82;3.33;;;;;;;18.43;46.42;102249.72;5112057;28;20028;-71
2023/05/29 12:40:23;;;;;;;11.50;3.35;;;;;;;18.55;45.93;102246.94;5112955;28;20027;-73
2023/05/29 12:42:53;;;;;;;8.70;2.88;;;;;;;18.65;45.45;102251.78;5112486;28;20035;-76
2023/05/29 12:45:19;;;;;;;10.50;3.05;;;;;;;18.67;44.64;102249.63;5112971;28;20101;-71
2023/05/29 12:47:46;;;;;;;8.98;2.88;;;;;;;18.54;43.42;102246.09;5112513;28;20039;-70
2023/05/29 12:50:24;;;;;;;9.63;3.10;;;;;;;18.47;43.89;102247.34;5112113;28;20114;-81
2023/05/29 12:53:15;;;;;;;8.90;2.97;;;;;;;18.50;43.21;102250.41;5092699;28;20478;-74
2023/05/29 12:55:44;;;;;;;7.18;2.38;;;;;;;18.53;42.72;102257.31;5092234;28;20048;-76
2023/05/29 12:58:11;;;;;;;6.35;2.72;;;;;;;18.45;42.18;102252.22;5108637;28;20040;-77
2023/05/29 13:00:38;;;;;;;9.68;2.60;;;;;;;18.48;43.44;102246.25;5110676;28;20518;-74
2023/05/29 13:03:05;;;;;;;10.13;2.92;;;;;;;18.53;43.05;102249.91;5112755;28;20462;-72
2023/05/29 13:05:31;;;;;;;11.80;2.80;;;;;;;18.50;42.96;102246.84;5111534;28;20053;-75
2023/05/29 13:07:56;;;;;;;11.00;2.97;;;;;;;18.36;42.36;102251.78;5113174;28;20114;-72
2023/05/29 13:10:22;;;;;;;10.95;3.33;;;;;;;18.38;42.48;102247.69;5110390;28;20028;-73
2023/05/29 13:12:53;;;;;;;9.57;3.20;;;;;;;18.44;42.31;102256.88;5111324;28;20382;-72
2023/05/29 13:15:19;;;;;;;8.68;2.85;;;;;;;18.42;43.07;102254.38;5110589;28;20075;-74
2023/05/29 13:17:44;;;;;;;12.18;3.53;;;;;;;18.39;42.79;102254.03;5106593;28;20460;-74
2023/05/29 13:20:11;;;;;;;9.75;3.20;;;;;;;18.47;43.71;102253.63;5110659;28;20023;-71
2023/05/29 13:22:38;;;;;;;14.82;3.55;;;;;;;18.46;42.99;102260.19;5112777;28;20051;-70
2023/05/29 13:25:06;;;;;;;8.57;2.88;;;;;;;18.48;42.18;102251.72;5111198;28;20024;-72
2023/05/29 13:27:33;;;;;;;11.23;2.88;;;;;;;18.48;41.63;102251.72;5111812;28;20019;-70
2023/05/29 13:29:58;;;;;;;11.05;3.38;;;;;;;18.57;41.63;102251.09;5096757;28;20032;-70
2023/05/29 13:32:24;;;;;;;13.00;2.80;;;;;;;18.69;41.28;102252.94;5112179;28;20032;-72
2023/05/29 13:34:49;;;;;;;12.30;3.70;;;;;;;18.89;41.94;102264.34;5112600;28;20530;-71
2023/05/29 13:37:14;;;;;;;9.68;3.42;;;;;;;18.93;41.87;102259.16;5104642;28;20039;-72
2023/05/29 13:39:39;;;;;;;12.07;3.42;;;;;;;19.04;42.24;102254.72;5107918;28;20271;-71
2023/05/29 13:42:07;;;;;;;13.50;3.83;;;;;;;19.10;41.78;102251.00;5112729;28;20522;-71
2023/05/29 13:44:32;;;;;;;12.98;3.22;;;;;;;19.17;41.46;102251.63;5115661;28;20368;-73
2023/05/29 13:46:57;;;;;;;11.48;3.20;;;;;;;19.17;40.36;102251.63;5116223;28;20031;-74
2023/05/29 13:49:23;;;;;;;10.98;2.95;;;;;;;19.10;40.38;102248.25;5115665;28;20027;-72
2023/05/29 13:51:48;;;;;;;9.40;3.20;;;;;;;19.30;41.60;102245.00;5111675;28;20444;-71
2023/05/29 13:54:15;;;;;;;10.55;2.97;;;;;;;19.28;41.52;102245.25;5105206;28;20038;-71
2023/05/29 13:56:41;;;;;;;9.57;3.30;;;;;;;19.34;40.42;102240.69;5111876;28;20031;-70
2023/05/29 13:59:06;;;;;;;9.80;3.55;;;;;;;19.44;41.03;102248.22;5115581;28;20498;-74
2023/05/29 14:01:33;;;;;;;8.38;3.08;;;;;;;19.57;42.05;102245.13;5112226;28;20035;-70
2023/05/29 14:03:59;;;;;;;12.15;3.20;;;;;;;19.60;39.71;102244.63;5109668;28;20131;-71
2023/05/29 14:06:24;;;;;;;11.55;3.70;;;;;;;19.74;39.63;102245.09;5114192;28;20449;-70
2023/05/29 14:08:50;;;;;;;12.82;3.45;;;;;;;19.70;38.53;102243.97;5114180;28;20034;-73
2023/05/29 14:11:15;;;;;;;11.05;3.35;;;;;;;19.78;39.16;102237.25;5112119;28;20116;-75
2023/05/29 14:13:41;;;;;;;14.50;4.43;;;;;;;19.88;38.42;102240.09;5113410;28;20032;-72
2023/05/29 14:16:06;;;;;;;11.15;3.22;;;;;;;19.75;37.97;102249.53;5113283;28;20023;-73
2023/05/29 14:18:31;;;;;;;13.07;3.30;;;;;;;19.53;39.13;102241.22;5114380;28;20031;-69
2023/05/29 14:20:57;;;;;;;10.57;3.47;;;;;;;19.46;39.77;102237.81;5115286;28;20031;-71
2023/05/29 14:23:22;;;;;;;13.82;3.83;;;;;;;19.53;40.04;102229.44;5112516;28;20052;-70
2023/05/29 14:25:47;;;;;;;13.20;3.40;;;;;;;19.54;40.08;102231.91;5113212;28;20115;-71
2023/05/29 14:28:13;;;;;;;10.20;3.40;;;;;;;19.82;40.18;102232.88;5093416;28;20118;-71
2023/05/29 14:30:38;;;;;;;10.25;3.70;;;;;;;19.88;40.50;102229.09;5094948;28;20030;-71
2023/05/29 14:33:03;;;;;;;15.27;4.10;;;;;;;20.00;40.29;102234.50;5094555;28;20455;-73
2023/05/29 14:35:29;;;;;;;13.30;4.05;;;;;;;19.80;39.43;102235.06;5094618;28;20455;-69
2023/05/29 14:37:55;;;;;;;11.48;3.50;;;;;;;19.82;40.22;102232.88;5097762;28;20040;-74
2023/05/29 14:40:20;;;;;;;13.18;3.60;;;;;;;19.65;39.60;102239.19;5112949;28;20078;-73
2023/05/29 14:42:45;;;;;;;11.25;3.97;;;;;;;19.62;40.28;102234.22;5112539;28;20078;-75
2023/05/29 14:45:11;;;;;;;24.05;4.47;;;;;;;19.69;40.46;102233.22;5114407;28;20032;-79
2023/05/29 14:47:36;;;;;;;10.93;3.33;;;;;;;19.76;39.73;102240.22;5113457;28;20031;-71
2023/05/29 14:50:01;;;;;;;18.02;4.60;;;;;;;19.78;39.33;102242.72;5112229;28;20031;-76
2023/05/29 14:52:27;;;;;;;16.58;4.15;;;;;;;19.98;39.04;102244.91;5114380;28;20027;-71
2023/05/29 14:54:52;;;;;;;13.98;4.18;;;;;;;19.97;38.30;102246.84;5114385;28;20043;-69
2023/05/29 14:57:18;;;;;;;13.05;3.75;;;;;;;20.00;39.13;102245.47;5110879;28;20474;-72
2023/05/29 14:59:43;;;;;;;13.93;3.65;;;;;;;20.08;38.24;102241.44;5110185;28;20031;-70
2023/05/29 15:02:09;;;;;;;12.10;3.63;;;;;;;20.29;38.59;102237.03;5105019;28;20027;-71
2023/05/29 15:04:35;;;;;;;15.35;3.90;;;;;;;20.28;38.21;102230.72;5104310;28;20430;-73
2023/05/29 15:07:00;;;;;;;15.38;4.40;;;;;;;20.17;38.01;102224.28;5110938;27;20034;-72
2023/05/29 15:09:26;;;;;;;14.55;5.00;;;;;;;20.31;38.26;102234.88;5093839;28;20383;-71
2023/05/29 15:11:51;;;;;;;13.30;4.15;;;;;;;20.52;37.78;102236.75;5094431;28;20379;-70
2023/05/29 15:14:17;;;;;;;15.52;3.97;;;;;;;20.42;37.90;102231.16;5099374;28;20028;-71
2023/05/29 15:16:42;;;;;;;14.63;3.78;;;;;;;20.42;37.84;102233.06;5113464;27;20076;-70
2023/05/29 15:19:07;;;;;;;12.93;4.30;;;;;;;20.48;37.79;102240.28;5112972;28;20100;-71
2023/05/29 15:21:33;;;;;;;11.50;3.53;;;;;;;20.48;37.61;102232.88;5111512;28;20499;-71
2023/05/29 15:23:58;;;;;;;14.50;4.53;;;;;;;20.38;37.46;102226.44;5114024;28;20070;-70
2023/05/29 15:26:23;;;;;;;13.20;4.30;;;;;;;20.56;38.02;102241.75;5105011;28;20063;-73
2023/05/29 15:28:48;;;;;;;15.68;5.40;;;;;;;20.74;37.16;102232.34;5092836;28;20269;-70
2023/05/29 15:31:14;;;;;;;10.43;4.32;;;;;;;20.84;35.85;102236.00;5092625;28;20501;-71
2023/05/29 15:33:40;;;;;;;15.95;5.18;;;;;;;21.17;35.56;102230.53;5094000;28;20024;-70
2023/05/29 15:36:07;;;;;;;14.50;5.55;;;;;;;21.46;34.74;102219.16;5112930;28;20023;-71
2023/05/29 15:38:32;;;;;;;13.85;4.13;;;;;;;21.75;34.00;102220.47;5109226;28;20092;-71
2023/05/29 15:40:58;;;;;;;14.02;4.90;;;;;;;22.07;32.96;102227.81;5105784;28;20536;-72
2023/05/29 15:43:25;;;;;;;12.73;4.13;;;;;;;22.60;33.04;102221.34;5113948;28;20031;-71
2023/05/29 15:45:50;;;;;;;12.68;3.30;;;;;;;23.05;32.29;102210.63;5112624;28;20355;-70
2023/05/29 15:48:15;;;;;;;11.90;4.35;;;;;;;23.40;31.48;102225.53;5109691;28;20046;-70
2023/05/29 15:50:41;;;;;;;14.70;4.72;;;;;;;23.73;31.32;102224.06;5117517;27;20072;-71
2023/05/29 15:53:06;;;;;;;12.60;3.78;;;;;;;23.76;30.68;102217.97;5110867;28;20023;-72
2023/05/29 15:55:32;;;;;;;14.75;4.53;;;;;;;23.78;30.67;102210.25;5111378;28;20120;-72
2023/05/29 15:57:57;;;;;;;13.37;4.10;;;;;;;23.51;30.71;102219.72;5113490;28;20482;-70
2023/05/29 16:00:22;;;;;;;12.88;4.55;;;;;;;22.94;32.00;102207.03;5113136;28;20274;-72
2023/05/29 16:02:49;;;;;;;13.90;6.80;;;;;;;22.20;32.62;102212.66;5111990;28;20084;-70
2023/05/29 16:05:15;;;;;;;16.33;7.50;;;;;;;21.77;32.55;102210.03;5107630;28;20036;-70
2023/05/29 16:07:41;;;;;;;13.68;5.18;;;;;;;21.46;32.79;102206.22;5109955;28;20054;-70
